Time;durP1;ratioP1;P1;durP2;ratioP2;P2;SDS_P1;SDS_P2;PMS_P1;PMS_P2;Temp;Humidity;BMP_temperature;BMP_pressure;BME280_temperature;BME280_humidity;BME280_pressure;Samples;Min_cycle;Max_cycle;Signal;HPM_P1;HPM_P2
2022/12/13 00:02:01;;;;;;;27.10;11.47;;;-2.60;99.90;;;-2.10;100.00;97555.34;5025542;28;20832;-84
2022/12/13 00:04:32;;;;;;;25.60;9.63;;;-2.60;99.90;;;-2.08;100.00;97561.97;5021734;28;20490;-85
2022/12/13 00:07:03;;;;;;;23.20;11.20;;;-2.60;99.90;;;-2.04;100.00;97552.31;5018238;28;20553;-85
2022/12/13 00:09:32;;;;;;;22.90;11.90;;;-2.50;99.90;;;-2.04;100.00;97552.31;5018505;28;20558;-85
2022/12/13 00:12:01;;;;;;;21.37;10.07;;;-2.50;99.90;;;-2.01;100.00;97546.94;5017279;28;20468;-84
2022/12/13 00:14:32;;;;;;;19.27;10.70;;;-2.40;99.90;;;-1.99;100.00;97545.09;5019368;28;20477;-85
2022/12/13 00:17:02;;;;;;;22.20;11.17;;;-2.40;99.90;;;-2.01;100.00;97541.81;5050255;28;20459;-85
2022/12/13 00:19:34;;;;;;;26.27;13.40;;;-2.40;99.90;;;-2.00;100.00;97538.31;5018272;28;20512;-84
2022/12/13 00:22:03;;;;;;;24.97;12.13;;;-2.40;99.90;;;-1.98;100.00;97535.66;5016338;28;21405;-84
2022/12/13 00:24:32;;;;;;;25.83;11.40;;;-2.30;99.90;;;-1.97;100.00;97532.13;5016691;28;20498;-85
2022/12/13 00:27:01;;;;;;;25.03;11.40;;;-2.40;99.90;;;-1.96;100.00;97528.66;5019355;28;20558;-85
2022/12/13 00:29:31;;;;;;;18.80;10.57;;;-2.40;99.90;;;-1.97;100.00;97530.41;5017269;28;20473;-85
2022/12/13 00:32:01;;;;;;;22.07;13.27;;;-2.40;99.90;;;-1.96;100.00;97524.34;5014763;28;20497;-85
2022/12/13 00:34:31;;;;;;;28.17;12.50;;;-2.50;99.90;;;-1.92;100.00;97527.47;5016496;28;20466;-85
2022/12/13 00:37:01;;;;;;;32.30;12.57;;;-2.40;99.90;;;-1.90;100.00;97517.91;5018657;28;20463;-85
2022/12/13 00:39:30;;;;;;;25.60;11.07;;;-2.50;99.90;;;-1.92;100.00;97514.66;5017282;28;21062;-84
2022/12/13 00:41:59;;;;;;;25.53;12.67;;;-2.30;99.90;;;-1.93;100.00;97523.28;5018432;28;20532;-85
2022/12/13 00:44:30;;;;;;;24.13;11.60;;;-2.40;99.90;;;-1.93;100.00;97524.09;5019437;28;20818;-84
2022/12/13 00:46:58;;;;;;;22.50;11.80;;;-2.40;99.90;;;-1.91;100.00;97524.81;5021945;28;20791;-83
2022/12/13 00:49:28;;;;;;;23.80;11.13;;;-2.30;99.90;;;-1.90;100.00;97513.59;5018290;28;21037;-84
2022/12/13 00:51:59;;;;;;;17.40;10.30;;;-2.40;99.90;;;-1.87;100.00;97509.97;5023306;28;20944;-85
2022/12/13 00:54:28;;;;;;;23.70;12.93;;;-2.30;99.90;;;-1.87;100.00;97518.47;5021450;28;20527;-84
2022/12/13 00:56:59;;;;;;;28.40;12.20;;;-2.30;99.90;;;-1.87;100.00;97513.34;5020503;28;20459;-84
2022/12/13 00:59:29;;;;;;;29.53;12.30;;;-2.20;99.90;;;-1.88;100.00;97516.88;5024383;28;20903;-85
2022/12/13 01:01:59;;;;;;;26.27;10.80;;;-2.30;99.90;;;-1.89;100.00;97509.31;5021211;28;21035;-84
2022/12/13 01:04:28;;;;;;;23.43;11.50;;;-2.30;99.90;;;-1.89;100.00;97505.00;5018887;28;20468;-85
2022/12/13 01:06:59;;;;;;;22.23;11.30;;;-2.30;99.90;;;-1.88;100.00;97501.50;5022049;28;20454;-86
2022/12/13 01:09:29;;;;;;;26.33;13.63;;;-2.20;99.90;;;-1.90;100.00;97499.97;5023593;28;20511;-84
2022/12/13 01:12:00;;;;;;;18.40;10.17;;;-2.20;99.90;;;-1.90;100.00;97488.00;5021448;28;20539;-85
2022/12/13 01:14:30;;;;;;;25.80;11.10;;;-2.20;99.90;;;-1.91;100.00;97498.38;5019853;28;20454;-84
2022/12/13 01:16:59;;;;;;;19.97;9.17;;;-2.30;99.90;;;-1.92;100.00;97489.06;5022095;28;20465;-85
2022/12/13 01:19:29;;;;;;;24.07;10.43;;;-2.30;99.90;;;-1.94;100.00;97496.06;5021943;28;20893;-85
2022/12/13 01:22:02;;;;;;;25.53;11.63;;;-2.30;99.90;;;-1.95;100.00;97502.94;5022384;28;20519;-85
2022/12/13 01:24:33;;;;;;;20.33;10.33;;;-2.40;99.90;;;-1.93;100.00;97493.38;5019872;28;20497;-85
2022/12/13 01:27:02;;;;;;;21.23;9.70;;;-2.40;99.90;;;-1.93;100.00;97498.47;5020676;28;20543;-85
2022/12/13 01:29:32;;;;;;;26.73;11.47;;;-2.40;99.90;;;-1.91;100.00;97506.06;5021544;28;20881;-84
2022/12/13 01:32:01;;;;;;;21.60;10.30;;;-2.30;99.90;;;-1.92;100.00;97489.88;5022553;28;20935;-86
2022/12/13 01:34:31;;;;;;;17.90;9.60;;;-2.30;99.90;;;-1.94;100.00;97486.59;5021426;28;20523;-87
2022/12/13 01:37:03;;;;;;;15.90;9.57;;;-2.30;99.90;;;-1.97;100.00;97486.84;5021467;28;20467;-85
2022/12/13 01:39:32;;;;;;;23.00;10.57;;;-2.30;99.90;;;-1.99;100.00;97482.81;5020392;28;20505;-84
2022/12/13 01:42:14;;;;;;;22.73;10.00;;;-2.40;99.90;;;-2.00;100.00;97481.97;5018927;28;20476;-84
2022/12/13 01:45:03;;;;;;;24.33;10.57;;;-2.40;99.90;;;-2.00;100.00;97487.09;5022808;28;20460;-84
2022/12/13 01:47:40;;;;;;;22.20;11.90;;;-2.40;99.90;;;-2.00;100.00;97484.53;5024615;28;20510;-84
2022/12/13 01:50:17;;;;;;;18.80;10.03;;;-2.40;99.90;;;-2.01;100.00;97490.59;5021964;28;20450;-85
2022/12/13 01:52:50;;;;;;;22.10;10.27;;;-2.40;99.90;;;-1.99;100.00;97498.16;5021803;28;20705;-84
2022/12/13 01:55:21;;;;;;;16.80;10.43;;;-2.40;99.90;;;-2.00;100.00;97497.34;5020170;28;20548;-85
2022/12/13 01:57:53;;;;;;;19.57;9.40;;;-2.50;99.90;;;-1.97;100.00;97491.97;5020232;28;20547;-85
2022/12/13 02:00:24;;;;;;;23.57;11.17;;;-2.50;99.90;;;-1.98;100.00;97492.94;5020193;28;20506;-84
2022/12/13 02:02:57;;;;;;;21.63;10.27;;;-2.50;99.90;;;-1.95;100.00;97495.25;5019561;28;20477;-85
2022/12/13 02:05:35;;;;;;;15.83;9.67;;;-2.50;99.90;;;-1.91;100.00;97490.69;5020240;28;20554;-85
2022/12/13 02:08:07;;;;;;;15.33;8.60;;;-2.50;99.90;;;-1.90;100.00;97488.00;5019846;28;20538;-83
2022/12/13 02:10:37;;;;;;;30.57;9.70;;;-2.50;99.90;;;-1.89;100.00;97493.94;5021484;28;20467;-84
2022/12/13 02:13:07;;;;;;;19.33;9.90;;;-2.40;99.90;;;-1.88;100.00;97490.44;5021984;28;20457;-85
2022/12/13 02:15:51;;;;;;;22.80;10.93;;;-2.40;99.90;;;-1.87;100.00;97484.38;5021253;28;20477;-84
2022/12/13 02:18:44;;;;;;;24.13;10.70;;;-2.40;99.90;;;-1.87;100.00;97486.91;5022007;28;20526;-85
2022/12/13 02:21:23;;;;;;;26.83;10.53;;;-2.50;99.90;;;-1.85;100.00;97485.88;5021997;28;20573;-85
2022/12/13 02:24:32;;;;;;;25.47;10.87;;;-2.40;99.90;;;-1.85;100.00;97482.50;5022189;28;20884;-84
2022/12/13 02:27:11;;;;;;;21.90;10.87;;;-2.40;99.90;;;-1.83;100.00;97486.56;5020351;28;20529;-85
2022/12/13 02:30:21;;;;;;;18.87;9.93;;;-2.40;99.90;;;-1.81;100.00;97482.16;5022752;28;20497;-85
2022/12/13 02:33:30;;;;;;;19.23;9.07;;;-2.30;99.90;;;-1.85;100.00;97480.75;5022449;28;20492;-85
2022/12/13 02:36:13;;;;;;;25.70;9.90;;;-2.30;99.90;;;-1.91;100.00;97481.25;5023970;28;20490;-85
2022/12/13 02:38:56;;;;;;;19.23;9.83;;;-2.40;99.90;;;-1.90;100.00;97477.75;5023815;28;20464;-85
2022/12/13 02:41:36;;;;;;;23.00;10.33;;;-2.40;99.90;;;-1.92;100.00;97474.50;5023774;28;20918;-85
2022/12/13 02:44:11;;;;;;;22.37;10.60;;;-2.40;99.90;;;-1.95;100.00;97474.75;5022273;28;20465;-85
2022/12/13 02:46:59;;;;;;;21.50;11.00;;;-2.50;99.90;;;-1.94;100.00;97473.81;5022192;28;20465;-84
2022/12/13 02:49:34;;;;;;;18.77;8.57;;;-2.50;99.90;;;-1.90;100.00;97477.75;5020007;28;20565;-84
2022/12/13 02:52:07;;;;;;;17.67;9.10;;;-2.50;99.90;;;-1.87;100.00;97481.78;5021299;28;20483;-83
2022/12/13 02:54:41;;;;;;;24.80;11.27;;;-2.40;99.90;;;-1.85;100.00;97477.38;5025720;28;20538;-85
2022/12/13 02:57:34;;;;;;;23.40;10.17;;;-2.40;99.90;;;-1.90;100.00;97477.75;5019844;28;20476;-84
2022/12/13 03:00:11;;;;;;;21.03;8.67;;;-2.50;99.90;;;-1.89;100.00;97476.00;5016739;28;20547;-85
2022/12/13 03:03:05;;;;;;;20.07;10.10;;;-2.50;99.90;;;-1.90;100.00;97472.63;5019250;28;20472;-84
2022/12/13 03:08:51;;;;;;;18.00;8.90;;;-2.40;99.90;;;-1.93;100.00;97472.88;5020359;28;20472;-85
2022/12/13 03:11:22;;;;;;;18.23;9.10;;;-2.30;99.90;;;-1.95;100.00;97474.75;5019329;28;20561;-85
2022/12/13 03:13:56;;;;;;;19.47;9.20;;;-2.30;99.90;;;-1.98;100.00;97474.19;5018846;28;21031;-85
2022/12/13 03:16:35;;;;;;;19.23;9.03;;;-2.40;99.90;;;-2.01;100.00;97470.09;5016895;28;20504;-85
2022/12/13 03:19:09;;;;;;;17.47;10.50;;;-2.40;99.90;;;-1.99;100.00;97480.25;5020325;28;20798;-84
2022/12/13 03:21:39;;;;;;;18.77;9.60;;;-2.40;99.90;;;-2.03;100.00;97472.00;5019429;28;20507;-84
2022/12/13 03:24:18;;;;;;;24.77;9.67;;;-2.40;99.90;;;-2.03;100.00;97465.13;5019574;28;20471;-84
2022/12/13 03:26:49;;;;;;;17.73;8.93;;;-2.40;99.90;;;-2.06;100.00;97467.94;5018061;28;20470;-85
2022/12/13 03:29:19;;;;;;;19.80;9.20;;;-2.40;99.90;;;-2.08;100.00;97468.97;5020356;28;21293;-85
2022/12/13 03:31:53;;;;;;;24.20;10.40;;;-2.50;99.90;;;-2.13;100.00;97474.47;5018509;28;21047;-86
2022/12/13 03:34:23;;;;;;;23.33;10.30;;;-2.50;99.90;;;-2.14;100.00;97475.41;5019614;28;21136;-85
2022/12/13 03:36:53;;;;;;;19.37;9.27;;;-2.50;99.90;;;-2.15;100.00;97480.63;5019179;28;20552;-85
2022/12/13 03:39:23;;;;;;;19.80;10.47;;;-2.60;99.90;;;-2.17;100.00;97459.47;5019353;28;20545;-85
2022/12/13 03:41:54;;;;;;;21.93;9.90;;;-2.60;99.90;;;-2.16;100.00;97472.16;5019082;28;20521;-84
2022/12/13 03:44:23;;;;;;;28.70;9.73;;;-2.60;99.90;;;-2.20;100.00;97473.34;5018089;28;20952;-85
2022/12/13 03:47:00;;;;;;;24.10;8.37;;;-2.60;99.90;;;-2.19;100.00;97466.47;5018247;28;20692;-85
2022/12/13 03:49:31;;;;;;;18.40;9.40;;;-2.80;99.90;;;-2.16;100.00;97458.56;5019556;28;20453;-84
2022/12/13 03:52:05;;;;;;;19.47;9.47;;;-2.70;99.90;;;-2.14;100.00;97454.94;5017490;28;20505;-84
2022/12/13 03:54:35;;;;;;;14.80;9.30;;;-2.60;99.90;;;-2.19;100.00;97451.13;5019291;28;20469;-85
2022/12/13 03:57:04;;;;;;;19.80;8.97;;;-2.60;99.90;;;-2.19;100.00;97456.25;5021185;28;20469;-84
2022/12/13 03:59:34;;;;;;;12.70;5.50;;;-2.60;99.90;;;-2.18;100.00;97463.78;5019807;28;20818;-84
2022/12/13 04:02:05;;;;;;;16.73;7.63;;;-2.60;99.90;;;-2.24;100.00;97458.34;5019447;28;20516;-84
2022/12/13 04:04:36;;;;;;;21.30;9.40;;;-2.60;99.90;;;-2.26;100.00;97462.78;5018480;28;20462;-84
2022/12/13 04:07:06;;;;;;;16.57;7.90;;;-2.70;99.90;;;-2.25;100.00;97470.31;5017852;28;21027;-84
2022/12/13 04:09:51;;;;;;;16.27;8.70;;;-2.70;99.90;;;-2.23;100.00;97470.22;5019918;28;20936;-85
2022/12/13 04:15:11;;;;;;;17.83;8.30;;;-2.70;99.90;;;-2.21;100.00;97458.09;5018361;28;20555;-85
2022/12/13 04:17:41;;;;;;;18.53;8.80;;;-2.70;99.90;;;-2.21;100.00;97460.66;5019445;28;20489;-84
2022/12/13 04:20:21;;;;;;;22.53;9.07;;;-2.60;99.90;;;-2.23;100.00;97465.91;5022329;28;20589;-85
2022/12/13 04:22:51;;;;;;;19.87;10.40;;;-2.60;99.90;;;-2.23;100.00;97459.97;5022029;28;20439;-82
2022/12/13 04:25:20;;;;;;;20.90;9.70;;;-2.60;99.90;;;-2.23;100.00;97454.84;5021344;28;20490;-85
2022/12/13 04:27:50;;;;;;;19.23;9.63;;;-2.60;99.90;;;-2.25;100.00;97447.28;5023959;28;20489;-84
2022/12/13 04:30:20;;;;;;;18.43;11.00;;;-2.60;99.90;;;-2.26;100.00;97444.88;5020168;28;20480;-84
2022/12/13 04:32:50;;;;;;;16.07;8.73;;;-2.60;99.90;;;-2.25;100.00;97439.59;5021275;28;20536;-84
2022/12/13 04:35:22;;;;;;;64.93;25.50;;;-2.60;99.90;;;-2.26;100.00;97434.63;5019582;28;20457;-84
2022/12/13 04:37:53;;;;;;;17.13;9.00;;;-2.70;99.90;;;-2.26;100.00;97434.63;5023818;28;20480;-84
2022/12/13 04:40:23;;;;;;;18.50;8.30;;;-2.60;99.90;;;-2.28;100.00;97436.47;5021413;28;20506;-84
2022/12/13 04:42:53;;;;;;;16.33;8.70;;;-2.70;99.90;;;-2.29;100.00;97438.22;5018171;28;20834;-84
2022/12/13 04:45:23;;;;;;;19.23;8.77;;;-2.60;99.90;;;-2.31;100.00;97452.91;5020069;28;21005;-84
2022/12/13 04:47:54;;;;;;;18.33;9.63;;;-2.70;99.90;;;-2.33;100.00;97451.41;5021600;28;20467;-83
2022/12/13 04:50:25;;;;;;;14.50;8.33;;;-2.70;99.90;;;-2.34;100.00;97457.44;5021473;28;21347;-84
2022/12/13 04:52:54;;;;;;;19.90;8.63;;;-2.70;99.90;;;-2.34;100.00;97457.44;5020724;28;20469;-85
2022/12/13 04:55:23;;;;;;;18.97;9.23;;;-2.80;99.90;;;-2.33;100.00;97454.78;5022156;28;20458;-85
2022/12/13 04:57:53;;;;;;;17.13;8.90;;;-2.80;99.90;;;-2.33;100.00;97456.53;5020675;28;20573;-84
2022/12/13 05:00:23;;;;;;;15.53;6.87;;;-2.80;99.90;;;-2.32;100.00;97455.56;5022134;28;20457;-85
2022/12/13 05:02:54;;;;;;;20.53;9.80;;;-2.70;99.90;;;-2.42;100.00;97450.38;5021578;28;21035;-86
2022/12/13 05:05:25;;;;;;;27.63;11.30;;;-2.80;99.90;;;-2.42;100.00;97455.50;5023755;28;20464;-85
2022/12/13 05:07:55;;;;;;;13.80;6.70;;;-2.80;99.90;;;-2.48;100.00;97453.41;5023442;28;20567;-86
2022/12/13 05:10:24;;;;;;;17.70;8.90;;;-2.80;99.90;;;-2.49;100.00;97454.34;5021181;28;20821;-85
2022/12/13 05:13:06;;;;;;;22.97;8.30;;;-2.90;99.90;;;-2.52;100.00;97441.81;5027191;28;20504;-85
2022/12/13 05:15:35;;;;;;;18.90;8.87;;;-2.90;99.90;;;-2.51;100.00;97450.28;5023355;28;20472;-85
2022/12/13 05:18:07;;;;;;;19.87;8.73;;;-3.00;99.90;;;-2.49;100.00;97438.19;5024961;28;20579;-85
2022/12/13 05:20:41;;;;;;;14.20;7.97;;;-3.00;99.90;;;-2.51;100.00;97440.06;5024385;28;20869;-86
2022/12/13 05:23:11;;;;;;;13.33;7.90;;;-2.90;99.90;;;-2.50;100.00;97442.50;5021908;28;20495;-86
2022/12/13 05:25:41;;;;;;;16.10;8.83;;;-2.90;99.90;;;-2.53;100.00;97437.59;5021148;28;20468;-86
2022/12/13 05:28:11;;;;;;;18.87;9.77;;;-3.00;99.90;;;-2.53;100.00;97433.31;5020771;28;20480;-86
2022/12/13 05:30:59;;;;;;;16.70;8.40;;;-2.90;99.90;;;-2.53;100.00;97431.69;5020619;28;20473;-85
2022/12/13 05:33:28;;;;;;;21.63;9.00;;;-3.00;99.90;;;-2.47;100.00;97432.03;5022040;28;20457;-85
2022/12/13 05:35:58;;;;;;;21.53;8.77;;;-3.00;99.90;;;-2.46;100.00;97437.97;5022330;28;20592;-86
2022/12/13 05:38:30;;;;;;;18.80;8.87;;;-2.90;99.90;;;-2.45;100.00;97442.94;5023151;28;20560;-84
2022/12/13 05:40:59;;;;;;;20.40;8.80;;;-2.80;99.90;;;-2.53;100.00;97437.59;5020634;28;20856;-85
2022/12/13 05:43:28;;;;;;;24.80;10.30;;;-3.00;99.90;;;-2.59;100.00;97441.47;5021321;28;20585;-85
2022/12/13 05:46:12;;;;;;;20.13;9.30;;;-3.00;99.90;;;-2.57;100.00;97446.47;5020380;28;20460;-84
2022/12/13 05:48:42;;;;;;;15.03;7.67;;;-3.00;99.90;;;-2.56;100.00;97437.84;5019563;28;20474;-85
2022/12/13 05:51:13;;;;;;;17.57;9.50;;;-3.00;99.90;;;-2.59;100.00;97430.41;5021861;28;20560;-85
2022/12/13 05:53:43;;;;;;;18.20;9.40;;;-2.90;99.90;;;-2.59;100.00;97441.47;5021059;28;20481;-84
2022/12/13 05:56:17;;;;;;;18.83;8.90;;;-3.00;99.90;;;-2.66;100.00;97448.00;5018357;28;20468;-85
2022/12/13 05:58:53;;;;;;;18.03;8.73;;;-3.10;99.90;;;-2.66;100.00;97442.88;5021716;28;20474;-84
2022/12/13 06:01:23;;;;;;;16.07;8.73;;;-3.10;99.90;;;-2.71;100.00;97433.97;5021557;28;21179;-85
2022/12/13 06:03:54;;;;;;;16.37;8.77;;;-3.10;99.90;;;-2.71;100.00;97434.75;5019565;28;20963;-84
2022/12/13 06:06:25;;;;;;;15.77;8.00;;;-3.10;99.90;;;-2.74;100.00;97435.00;5017947;28;20436;-85
2022/12/13 06:08:54;;;;;;;23.97;8.80;;;-3.30;99.90;;;-2.71;100.00;97441.63;5019555;28;20547;-84
2022/12/13 06:11:25;;;;;;;17.17;8.40;;;-3.20;99.90;;;-2.69;100.00;97449.97;5016994;28;20506;-85
2022/12/13 06:14:01;;;;;;;15.57;8.63;;;-3.20;99.90;;;-2.69;100.00;97445.69;5020378;28;20438;-85
2022/12/13 06:16:30;;;;;;;17.40;8.23;;;-3.20;99.90;;;-2.69;100.00;97445.69;5021593;28;20463;-82
2022/12/13 06:19:00;;;;;;;20.10;8.57;;;-3.10;99.90;;;-2.77;100.00;97445.47;5020804;28;20488;-87
2022/12/13 06:21:35;;;;;;;18.50;8.87;;;-3.20;99.90;;;-2.75;100.00;97441.06;5022452;28;20580;-86
2022/12/13 06:24:12;;;;;;;13.70;8.17;;;-3.30;99.90;;;-2.72;100.00;97443.38;5021537;28;20474;-85
2022/12/13 06:26:42;;;;;;;18.93;8.70;;;-3.20;99.90;;;-2.72;100.00;97450.22;5022363;28;20552;-85
2022/12/13 06:29:15;;;;;;;16.60;8.20;;;-3.10;99.90;;;-2.79;100.00;97447.34;5018574;28;20484;-84
2022/12/13 06:31:59;;;;;;;15.53;8.83;;;-3.30;99.90;;;-2.79;100.00;97447.34;5017495;28;20454;-84
2022/12/13 06:34:34;;;;;;;17.90;9.70;;;-3.20;99.90;;;-2.75;100.00;97458.97;5020432;28;20472;-85
2022/12/13 06:37:09;;;;;;;16.83;9.50;;;-3.20;99.90;;;-2.74;100.00;97458.00;4996801;28;20480;-85
2022/12/13 06:39:38;;;;;;;18.67;9.53;;;-3.20;99.90;;;-2.75;100.00;97448.72;5015945;28;20493;-84
2022/12/13 06:42:16;;;;;;;23.63;10.17;;;-3.10;99.90;;;-2.76;100.00;97456.50;5002147;28;20497;-84
2022/12/13 06:44:51;;;;;;;16.70;9.33;;;-3.10;99.90;;;-2.83;100.00;97453.63;5001157;28;20977;-85
2022/12/13 06:47:26;;;;;;;19.93;9.27;;;-3.30;99.90;;;-2.82;100.00;97452.69;5001758;28;20475;-85
2022/12/13 06:50:01;;;;;;;21.20;9.70;;;-3.20;99.90;;;-2.83;100.00;97457.91;5002056;28;20526;-84
2022/12/13 06:52:36;;;;;;;20.67;9.67;;;-3.30;99.90;;;-2.82;100.00;97460.38;5001590;28;20528;-85
2022/12/13 06:55:06;;;;;;;16.33;8.53;;;-3.30;99.90;;;-2.86;100.00;97450.47;4997489;28;20575;-86
2022/12/13 06:57:36;;;;;;;14.90;7.63;;;-3.40;99.90;;;-2.87;100.00;97454.78;4998895;28;20488;-84
2022/12/13 07:00:12;;;;;;;23.67;9.50;;;-3.40;99.90;;;-2.89;100.00;97455.84;4998179;28;20473;-84
2022/12/13 07:02:53;;;;;;;20.70;9.57;;;-3.30;99.90;;;-2.87;100.00;97456.53;5000095;28;20593;-85
2022/12/13 07:05:23;;;;;;;17.70;8.43;;;-3.30;99.90;;;-2.88;100.00;97458.25;4996612;28;20520;-85
2022/12/13 07:07:55;;;;;;;18.57;8.70;;;-3.30;99.90;;;-2.92;100.00;97451.78;5030616;28;20962;-84
2022/12/13 07:10:25;;;;;;;16.10;8.07;;;-3.30;99.90;;;-2.93;100.00;97455.25;4999563;28;20499;-84
2022/12/13 07:12:54;;;;;;;19.00;9.77;;;-3.30;99.90;;;-2.91;100.00;97458.50;5000040;28;20473;-85
2022/12/13 07:15:22;;;;;;;13.77;8.20;;;-3.40;99.90;;;-2.92;100.00;97466.31;5000808;28;21061;-85
2022/12/13 07:17:55;;;;;;;20.67;8.53;;;-3.40;99.90;;;-2.88;100.00;97467.69;4999277;28;20518;-84
2022/12/13 07:20:24;;;;;;;19.00;9.50;;;-3.30;99.90;;;-2.96;100.00;97465.72;4997551;28;20512;-84
2022/12/13 07:22:55;;;;;;;17.90;8.87;;;-3.40;99.90;;;-2.99;100.00;97468.53;4997660;28;20566;-84
2022/12/13 07:25:26;;;;;;;17.90;8.80;;;-3.40;99.90;;;-2.96;100.00;97475.13;4998947;28;20467;-84
2022/12/13 07:27:59;;;;;;;17.60;9.57;;;-3.40;99.90;;;-2.98;100.00;97472.69;4998585;28;20530;-84
2022/12/13 07:30:33;;;;;;;16.37;8.77;;;-3.40;99.90;;;-2.97;100.00;97474.31;4997894;28;20481;-84
2022/12/13 07:33:10;;;;;;;16.90;7.63;;;-3.50;99.90;;;-2.93;100.00;97462.13;5000133;28;20455;-85
2022/12/13 07:35:41;;;;;;;13.30;7.80;;;-3.40;99.90;;;-2.97;100.00;97466.66;5003198;28;20528;-85
2022/12/13 07:38:12;;;;;;;15.93;6.23;;;-3.40;99.90;;;-3.01;100.00;97469.56;4999251;28;20868;-85
2022/12/13 07:40:41;;;;;;;23.37;8.40;;;-3.40;99.90;;;-3.08;100.00;97466.66;4999937;28;20465;-84
2022/12/13 07:43:14;;;;;;;22.83;11.10;;;-3.50;99.90;;;-3.07;100.00;97473.41;5001694;28;20589;-84
2022/12/13 07:45:45;;;;;;;16.80;9.30;;;-3.40;99.90;;;-3.07;100.00;97468.28;5002221;28;20485;-85
2022/12/13 07:48:14;;;;;;;12.63;6.80;;;-3.40;99.90;;;-3.06;100.00;97473.31;5001201;28;20445;-85
2022/12/13 07:50:44;;;;;;;15.33;8.60;;;-3.40;99.90;;;-3.10;100.00;97478.75;4999498;28;20472;-86
2022/12/13 07:53:24;;;;;;;23.10;9.20;;;-3.40;99.90;;;-3.11;100.00;97470.25;5004266;28;20472;-86
2022/12/13 07:55:53;;;;;;;14.77;7.53;;;-3.50;99.90;;;-3.10;100.00;97471.09;5003762;28;20473;-84
2022/12/13 07:58:22;;;;;;;18.30;9.30;;;-3.50;99.90;;;-3.06;100.00;97469.94;5004920;28;20495;-85
2022/12/13 08:00:52;;;;;;;14.90;7.77;;;-3.50;99.90;;;-3.03;100.00;97462.00;5003225;28;20539;-84
2022/12/13 08:03:22;;;;;;;12.40;8.00;;;-3.40;99.90;;;-3.00;100.00;97469.44;5003608;28;20529;-83
2022/12/13 08:06:01;;;;;;;17.40;9.00;;;-3.40;99.90;;;-3.01;100.00;97467.81;5004522;28;20476;-84
2022/12/13 08:08:31;;;;;;;20.20;7.93;;;-3.40;99.90;;;-3.02;100.00;97475.63;5000456;28;20490;-84
2022/12/13 08:11:03;;;;;;;22.30;9.73;;;-3.40;99.90;;;-3.03;100.00;97466.31;4999714;28;20470;-85
2022/12/13 08:13:32;;;;;;;14.40;8.37;;;-3.40;99.90;;;-3.10;100.00;97474.47;5001028;28;20461;-84
2022/12/13 08:16:03;;;;;;;11.43;6.50;;;-3.50;99.90;;;-3.03;100.00;97482.47;5003194;28;20477;-79
2022/12/13 08:18:53;;;;;;;19.73;8.93;;;-3.40;99.90;;;-3.15;100.00;97483.38;5001470;28;20489;-85
2022/12/13 08:21:36;;;;;;;13.40;7.23;;;-3.50;99.90;;;-3.19;100.00;97492.22;4998862;28;20986;-84
2022/12/13 08:24:24;;;;;;;15.67;6.27;;;-3.60;99.90;;;-3.20;100.00;97488.88;4998264;28;20536;-80
2022/12/13 08:26:56;;;;;;;16.40;8.87;;;-3.40;99.90;;;-3.20;100.00;97482.94;5001601;28;20475;-84
2022/12/13 08:29:26;;;;;;;16.70;7.37;;;-3.60;99.90;;;-3.22;100.00;97484.78;4999711;28;20507;-85
2022/12/13 08:32:05;;;;;;;20.30;8.60;;;-3.60;99.90;;;-3.26;100.00;97480.81;5000054;28;20461;-85
2022/12/13 08:34:34;;;;;;;17.10;9.30;;;-3.70;99.90;;;-3.26;100.00;97480.81;4999563;28;20963;-85
2022/12/13 08:37:03;;;;;;;20.80;7.97;;;-3.70;99.90;;;-3.25;100.00;97485.81;5000698;28;20464;-86
2022/12/13 08:39:36;;;;;;;16.83;8.40;;;-3.70;99.90;;;-3.24;100.00;97484.91;5001240;28;20486;-85
2022/12/13 08:42:08;;;;;;;16.77;8.27;;;-3.60;99.90;;;-3.16;100.00;97490.22;5003984;28;20474;-86
2022/12/13 08:44:47;;;;;;;12.87;7.57;;;-3.50;99.90;;;-3.10;100.00;97488.97;5004159;28;20981;-86
2022/12/13 08:47:18;;;;;;;21.97;9.67;;;-3.50;99.90;;;-3.06;100.00;97488.63;5004534;28;20474;-87
2022/12/13 08:49:54;;;;;;;14.00;7.87;;;-3.50;99.90;;;-2.99;100.00;97495.84;5003417;28;20519;-84
2022/12/13 08:52:32;;;;;;;17.97;9.23;;;-3.40;99.90;;;-3.01;100.00;97495.94;5000785;28;20457;-81
2022/12/13 08:55:14;;;;;;;15.33;8.47;;;-3.40;99.90;;;-3.06;100.00;97493.75;4999981;28;21077;-83
2022/12/13 08:57:45;;;;;;;18.20;9.67;;;-3.40;99.90;;;-3.04;100.00;97498.72;5002623;28;21050;-84
2022/12/13 09:00:20;;;;;;;18.67;9.23;;;-3.50;99.90;;;-3.07;100.00;97493.84;5001264;28;20500;-84
2022/12/13 09:02:49;;;;;;;18.67;9.53;;;-3.60;99.90;;;-3.06;100.00;97498.03;5003462;28;20579;-83
2022/12/13 09:05:21;;;;;;;19.60;8.77;;;-3.50;99.90;;;-3.06;100.00;97495.50;4999790;28;20874;-84
2022/12/13 09:08:03;;;;;;;14.93;7.20;;;-3.50;99.90;;;-3.03;100.00;97510.59;5001102;28;20462;-85
2022/12/13 09:10:59;;;;;;;13.30;8.67;;;-3.40;99.90;;;-3.03;100.00;97495.25;5003158;28;20468;-81
2022/12/13 09:13:30;;;;;;;15.30;8.40;;;-3.40;99.90;;;-3.02;100.00;97490.97;4999654;28;20477;-84
2022/12/13 09:16:06;;;;;;;19.20;9.37;;;-3.40;99.90;;;-2.96;100.00;97485.38;5001407;28;20466;-84
2022/12/13 09:18:52;;;;;;;21.03;7.30;;;-3.30;99.90;;;-2.91;100.00;97493.47;5004000;28;20488;-85
2022/12/13 09:21:24;;;;;;;18.53;8.63;;;-3.30;99.90;;;-2.88;100.00;97488.16;4999858;28;20448;-84
2022/12/13 09:24:00;;;;;;;18.33;9.37;;;-3.20;99.90;;;-2.86;100.00;97496.50;5001339;28;20566;-85
2022/12/13 09:26:31;;;;;;;18.10;9.53;;;-3.20;99.90;;;-2.85;100.00;97488.75;5002773;28;20442;-85
2022/12/13 09:29:07;;;;;;;17.20;9.83;;;-3.20;99.90;;;-2.81;100.00;97495.22;5003085;28;20460;-85
2022/12/13 09:31:39;;;;;;;17.53;7.73;;;-3.10;99.90;;;-2.79;100.00;97498.50;5000295;28;20542;-85
2022/12/13 09:34:10;;;;;;;29.00;9.97;;;-3.20;99.90;;;-2.76;100.00;97495.69;4999793;28;20490;-85
2022/12/13 09:36:39;;;;;;;21.60;10.37;;;-3.20;99.90;;;-2.70;100.00;97490.09;4998672;28;20473;-85
2022/12/13 09:39:10;;;;;;;14.47;8.47;;;-3.10;99.90;;;-2.69;100.00;97486.63;5000542;28;20542;-85
2022/12/13 09:41:46;;;;;;;26.10;10.30;;;-3.00;99.90;;;-2.69;100.00;97490.91;5001599;28;20439;-85
2022/12/13 09:44:24;;;;;;;15.50;8.77;;;-3.10;99.90;;;-2.70;100.00;97487.53;5001127;28;20504;-85
2022/12/13 09:47:25;;;;;;;18.83;9.03;;;-3.00;99.90;;;-2.65;100.00;97489.75;4998549;28;20886;-84
2022/12/13 09:50:09;;;;;;;19.50;9.20;;;-3.00;99.90;;;-2.57;100.00;97489.97;4998599;28;20462;-84
2022/12/13 09:52:45;;;;;;;14.80;8.33;;;-3.00;99.90;;;-2.59;100.00;97482.41;5001017;28;20463;-85
2022/12/13 09:55:22;;;;;;;20.60;9.60;;;-2.90;99.90;;;-2.58;100.00;97476.38;5000484;28;20842;-84
2022/12/13 09:57:54;;;;;;;19.30;8.90;;;-2.90;99.90;;;-2.53;100.00;97479.38;4997620;28;20502;-85
2022/12/13 10:00:28;;;;;;;22.43;9.10;;;-2.80;99.90;;;-2.50;100.00;97478.34;4998927;28;21053;-85
2022/12/13 10:02:59;;;;;;;21.03;10.40;;;-2.90;99.90;;;-2.44;100.00;97482.97;5000879;28;20567;-85
2022/12/13 10:05:32;;;;;;;15.20;8.87;;;-2.80;99.90;;;-2.40;100.00;97480.97;5001433;28;20465;-84
2022/12/13 10:08:13;;;;;;;16.13;8.90;;;-2.70;99.90;;;-2.43;100.00;97481.22;5002826;28;20459;-85
2022/12/13 10:10:44;;;;;;;17.53;8.90;;;-2.70;99.90;;;-2.39;100.00;97480.03;5029187;28;20484;-85
2022/12/13 10:13:20;;;;;;;13.33;8.50;;;-2.60;99.90;;;-2.37;100.00;97473.06;4999612;28;20558;-85
2022/12/13 10:15:59;;;;;;;25.33;11.23;;;-2.70;99.90;;;-2.31;100.00;97470.00;5000667;28;20468;-85
2022/12/13 10:18:36;;;;;;;17.27;7.10;;;-2.60;99.90;;;-2.29;100.00;97466.38;4999012;28;21103;-84
2022/12/13 10:21:13;;;;;;;20.87;8.70;;;-2.50;99.90;;;-2.27;100.00;97461.16;5000779;28;20467;-85
2022/12/13 10:23:41;;;;;;;16.63;8.30;;;-2.50;99.90;;;-2.25;100.00;97466.94;4999312;28;20596;-85
2022/12/13 10:26:37;;;;;;;16.60;8.57;;;-2.40;99.90;;;-2.24;100.00;97473.69;4999274;28;20495;-85
2022/12/13 10:29:08;;;;;;;17.43;8.73;;;-2.50;99.90;;;-2.21;100.00;97470.88;5000896;28;20511;-84
2022/12/13 10:31:43;;;;;;;15.90;8.70;;;-2.50;99.90;;;-2.17;100.00;97462.03;4998884;28;20559;-84
2022/12/13 10:34:25;;;;;;;18.90;8.43;;;-2.60;99.90;;;-2.14;100.00;97456.66;4999660;28;20467;-84
2022/12/13 10:36:55;;;;;;;18.37;8.17;;;-2.60;99.90;;;-2.10;100.00;97455.50;4999845;28;20861;-84
2022/12/13 10:39:42;;;;;;;15.33;7.93;;;-2.60;99.90;;;-2.11;100.00;97443.63;4998528;28;20474;-84